Oxdrift, Canada
Current Conditions -  °F | °C
As of 3:00 AM on Friday 24 Oct 2014 (Local Time) from CYHD Reporting Station
Broken Clouds Broken Clouds  
Wind Chill:   Ceiling: 22000
Heat Index:   Visibility: 9mi
Dew Point:   Wind: 9mph
Humidity: 76%   Direction: 180°S
Pressure: 29.76"   Gusts: NA
Location:  49.82°N, 92.98°W
Report Text: CYHD 240800Z AUTO 18008KT 9SM SCT190 BKN220 BKN240 08/04 A2976 RMK SLP088
Loading
Personal Weather Stations






























Interactive Weather Map
Tropical Storm Tracking
New forecast layout! Learn more

10-Day Weather Forecast

Advertisements
Track Severe Weather on mobile